Time;durP1;ratioP1;P1;durP2;ratioP2;P2;SDS_P1;SDS_P2;PMS_P1;PMS_P2;Temp;Humidity;BMP_temperature;BMP_pressure;BME280_temperature;BME280_humidity;BME280_pressure;Samples;Min_cycle;Max_cycle;Signal;HPM_P1;HPM_P2
2023/10/22 00:01:22;;;;;;;5.70;1.50;;;13.80;99.90;;;;;;5100501;28;20422;-75
2023/10/22 00:04:07;;;;;;;3.73;1.50;;;13.90;98.10;;;;;;5100666;28;20436;-75
2023/10/22 00:06:55;;;;;;;4.00;1.10;;;13.90;98.50;;;;;;5092949;28;20793;-78
2023/10/22 00:09:40;;;;;;;10.90;1.33;;;13.80;99.90;;;;;;5100648;28;20996;-75
2023/10/22 00:12:27;;;;;;;2.50;1.20;;;13.80;99.90;;;;;;5112382;28;20400;-77
2023/10/22 00:15:14;;;;;;;3.40;0.90;;;13.60;99.90;;;;;;5096354;28;20453;-77
2023/10/22 00:18:00;;;;;;;4.20;1.47;;;13.50;99.90;;;;;;5104257;28;20404;-75
2023/10/22 00:20:45;;;;;;;5.47;1.43;;;13.40;99.90;;;;;;5108271;28;20432;-77
2023/10/22 00:23:32;;;;;;;2.10;0.97;;;13.30;99.90;;;;;;5104479;28;20446;-78
2023/10/22 00:26:17;;;;;;;4.10;1.20;;;13.30;99.90;;;;;;5107408;28;20456;-77
2023/10/22 00:29:03;;;;;;;4.97;1.70;;;13.30;99.90;;;;;;5093123;28;20453;-75
2023/10/22 00:31:49;;;;;;;4.63;1.47;;;13.40;99.90;;;;;;5109053;28;20403;-77
2023/10/22 00:34:35;;;;;;;5.80;1.93;;;13.40;99.90;;;;;;5104988;28;20802;-76
2023/10/22 00:37:20;;;;;;;3.23;1.00;;;13.50;99.90;;;;;;5096206;28;20403;-76
2023/10/22 00:40:09;;;;;;;5.83;1.47;;;13.50;99.90;;;;;;5110377;28;20452;-77
2023/10/22 00:42:55;;;;;;;5.30;1.40;;;13.50;99.90;;;;;;5104169;28;20965;-78
2023/10/22 00:45:41;;;;;;;4.00;1.73;;;13.60;99.90;;;;;;5095780;28;20522;-77
2023/10/22 00:48:27;;;;;;;3.43;1.40;;;13.60;99.90;;;;;;5099883;28;20428;-77
2023/10/22 00:51:14;;;;;;;8.60;2.27;;;13.60;99.90;;;;;;5115214;28;20457;-77
2023/10/22 00:54:00;;;;;;;8.37;2.70;;;13.60;99.90;;;;;;5099782;28;20484;-77
2023/10/22 00:56:47;;;;;;;3.90;1.40;;;13.70;99.90;;;;;;5098383;28;21010;-77
2023/10/22 00:59:34;;;;;;;4.40;1.80;;;13.70;99.90;;;;;;5087352;28;20446;-77
2023/10/22 01:02:19;;;;;;;4.67;1.20;;;13.70;99.40;;;;;;5093765;28;20465;-77
2023/10/22 01:05:06;;;;;;;4.60;1.37;;;13.70;99.30;;;;;;5094914;28;20972;-77
2023/10/22 01:07:52;;;;;;;4.53;1.20;;;13.80;99.50;;;;;;5095011;28;20409;-77
2023/10/22 01:10:37;;;;;;;3.20;1.57;;;13.80;98.50;;;;;;5103566;28;20428;-77
2023/10/22 01:13:25;;;;;;;4.83;1.53;;;13.80;99.50;;;;;;5087027;28;20397;-77
2023/10/22 01:16:10;;;;;;;3.60;1.53;;;13.70;99.90;;;;;;5094063;28;20511;-77
2023/10/22 01:18:56;;;;;;;7.90;1.30;;;13.60;99.80;;;;;;5097315;28;20418;-77
2023/10/22 01:21:42;;;;;;;5.13;1.20;;;13.50;99.90;;;;;;5072427;28;20810;-77
2023/10/22 01:24:33;;;;;;;6.73;2.10;;;13.40;99.90;;;;;;5085608;28;20431;-77
2023/10/22 01:27:18;;;;;;;8.00;1.70;;;13.30;99.90;;;;;;5094210;28;20509;-78
2023/10/22 01:30:05;;;;;;;8.07;1.90;;;13.20;99.90;;;;;;5094344;28;20481;-77
2023/10/22 01:32:50;;;;;;;3.53;1.50;;;13.00;99.90;;;;;;5093149;28;20454;-77
2023/10/22 01:35:37;;;;;;;5.37;1.53;;;12.90;99.90;;;;;;5078933;28;20444;-77
2023/10/22 01:38:22;;;;;;;5.90;1.30;;;12.90;99.90;;;;;;5099536;28;20397;-77
2023/10/22 01:41:09;;;;;;;5.13;1.30;;;12.80;99.90;;;;;;5094973;28;20427;-77
2023/10/22 01:43:56;;;;;;;4.43;1.23;;;12.70;99.90;;;;;;5092732;28;20544;-76
2023/10/22 01:46:42;;;;;;;6.80;2.23;;;12.70;99.90;;;;;;5086884;28;20403;-77
2023/10/22 01:49:27;;;;;;;3.07;1.07;;;12.60;99.90;;;;;;5093089;28;20510;-77
2023/10/22 01:52:14;;;;;;;6.03;1.30;;;12.60;99.90;;;;;;5092648;28;20425;-77
2023/10/22 01:54:59;;;;;;;17.03;1.60;;;12.40;99.90;;;;;;5093617;28;21004;-77
2023/10/22 01:57:46;;;;;;;4.73;1.80;;;12.40;99.90;;;;;;5087924;28;20450;-77
2023/10/22 02:00:33;;;;;;;3.50;1.27;;;12.30;99.90;;;;;;5093807;28;20404;-77
2023/10/22 02:03:18;;;;;;;5.40;1.67;;;12.20;99.90;;;;;;5093678;28;20480;-77
2023/10/22 02:06:11;;;;;;;4.90;1.83;;;12.10;99.90;;;;;;5092770;28;20456;-77
2023/10/22 02:08:57;;;;;;;3.43;1.20;;;12.20;99.90;;;;;;5085994;28;20492;-77
2023/10/22 02:11:43;;;;;;;3.50;1.33;;;12.20;99.90;;;;;;5095162;28;20429;-78
2023/10/22 02:14:30;;;;;;;11.03;1.77;;;12.30;99.90;;;;;;5087458;28;20478;-78
2023/10/22 02:17:15;;;;;;;3.53;1.43;;;12.30;99.90;;;;;;5096563;28;20483;-77
2023/10/22 02:20:01;;;;;;;4.70;1.53;;;12.20;99.90;;;;;;5097672;28;20425;-77
2023/10/22 02:22:47;;;;;;;6.90;1.73;;;12.10;99.90;;;;;;5088813;28;20529;-77
2023/10/22 02:25:32;;;;;;;6.27;2.27;;;12.20;99.90;;;;;;5086415;28;20456;-77
2023/10/22 02:28:18;;;;;;;3.83;1.40;;;12.20;99.90;;;;;;5094858;28;20970;-77
2023/10/22 02:31:05;;;;;;;5.03;1.60;;;12.20;99.90;;;;;;5094227;28;20934;-76
2023/10/22 02:34:02;;;;;;;6.03;1.97;;;12.30;99.90;;;;;;5107144;28;20758;-77
2023/10/22 02:36:47;;;;;;;3.60;1.40;;;12.50;99.90;;;;;;5089866;28;20404;-76
2023/10/22 02:39:33;;;;;;;6.43;1.60;;;12.60;99.90;;;;;;5093749;28;20472;-77
2023/10/22 02:42:18;;;;;;;6.50;1.80;;;12.60;99.90;;;;;;5099386;28;20429;-77
2023/10/22 02:45:05;;;;;;;4.00;1.67;;;12.70;99.90;;;;;;5091118;28;20445;-77
2023/10/22 02:47:53;;;;;;;6.17;1.53;;;12.80;99.90;;;;;;5091934;28;20433;-77
2023/10/22 02:50:39;;;;;;;5.20;2.17;;;12.70;99.90;;;;;;5092276;28;20422;-77
2023/10/22 02:53:25;;;;;;;8.97;1.83;;;12.60;99.90;;;;;;5090759;28;20471;-77
2023/10/22 02:56:10;;;;;;;4.63;1.60;;;12.60;99.90;;;;;;5090609;28;20552;-77
2023/10/22 02:58:56;;;;;;;6.27;1.60;;;12.50;99.90;;;;;;5091474;28;20432;-77
2023/10/22 03:01:41;;;;;;;13.43;2.07;;;12.40;99.90;;;;;;5089638;28;20395;-77
2023/10/22 03:04:28;;;;;;;4.13;1.30;;;12.30;99.90;;;;;;5103772;28;20455;-77
2023/10/22 03:07:14;;;;;;;6.03;2.00;;;12.40;99.90;;;;;;5094844;28;20567;-77
2023/10/22 03:09:59;;;;;;;6.60;1.90;;;12.40;99.90;;;;;;5101048;28;20809;-77
2023/10/22 03:12:45;;;;;;;5.80;2.10;;;12.60;99.90;;;;;;5090313;28;20428;-77
2023/10/22 03:15:30;;;;;;;9.27;2.40;;;12.60;99.90;;;;;;5095216;28;20464;-76
2023/10/22 03:18:16;;;;;;;7.87;1.77;;;12.70;99.90;;;;;;5095591;28;20542;-77
2023/10/22 03:21:10;;;;;;;14.07;3.00;;;12.60;99.90;;;;;;5094334;28;20959;-77
2023/10/22 03:23:56;;;;;;;7.17;1.90;;;12.60;99.90;;;;;;5090292;28;20473;-76
2023/10/22 03:26:42;;;;;;;4.00;1.20;;;12.60;99.90;;;;;;5089042;28;20435;-77
2023/10/22 03:29:28;;;;;;;4.50;1.60;;;12.50;99.90;;;;;;5096290;28;20511;-77
2023/10/22 03:32:14;;;;;;;7.10;2.00;;;12.50;99.90;;;;;;5093353;28;20424;-77
2023/10/22 03:35:00;;;;;;;5.93;1.80;;;12.50;99.90;;;;;;5101633;28;20521;-77
2023/10/22 03:37:47;;;;;;;6.63;1.30;;;12.50;99.90;;;;;;5090753;28;20441;-77
2023/10/22 03:40:33;;;;;;;6.27;1.97;;;12.60;99.90;;;;;;5091806;28;20444;-77
2023/10/22 03:43:19;;;;;;;3.97;1.57;;;12.50;99.90;;;;;;5094734;28;20479;-77
2023/10/22 03:46:05;;;;;;;5.60;1.57;;;12.50;99.90;;;;;;5094334;28;20458;-77
2023/10/22 03:48:50;;;;;;;10.60;1.40;;;12.60;99.90;;;;;;5089308;28;20437;-77
2023/10/22 03:51:36;;;;;;;2.70;1.10;;;12.60;99.90;;;;;;5093989;28;20982;-77
2023/10/22 03:54:23;;;;;;;3.53;1.43;;;12.60;99.90;;;;;;5095362;28;20404;-77
2023/10/22 03:57:09;;;;;;;5.40;1.43;;;12.80;99.90;;;;;;5100818;28;20922;-77
2023/10/22 03:59:55;;;;;;;21.17;2.70;;;12.80;99.90;;;;;;5097274;28;20438;-77
2023/10/22 04:02:40;;;;;;;3.83;1.60;;;12.80;99.90;;;;;;5091186;28;20433;-78
2023/10/22 04:05:26;;;;;;;7.33;1.50;;;12.80;99.90;;;;;;5100576;28;20799;-78
2023/10/22 04:08:12;;;;;;;3.70;1.47;;;12.90;99.90;;;;;;5098677;28;20434;-78
2023/10/22 04:10:59;;;;;;;11.63;1.60;;;12.90;99.90;;;;;;5100836;28;20441;-77
2023/10/22 04:13:44;;;;;;;4.47;1.50;;;13.00;99.90;;;;;;5097370;28;20398;-77
2023/10/22 04:16:30;;;;;;;11.13;1.47;;;13.00;99.90;;;;;;5105845;28;20442;-78
2023/10/22 04:19:16;;;;;;;7.20;2.03;;;13.10;99.90;;;;;;5098711;28;20432;-77
2023/10/22 04:22:01;;;;;;;4.93;1.50;;;13.00;99.90;;;;;;5098593;28;20511;-77
2023/10/22 04:24:47;;;;;;;10.70;2.07;;;13.00;99.90;;;;;;5088872;28;20532;-77
2023/10/22 04:27:34;;;;;;;12.53;3.57;;;13.00;99.90;;;;;;5096485;28;20475;-77
2023/10/22 04:30:21;;;;;;;12.33;1.97;;;13.00;99.90;;;;;;5098830;28;20407;-77
2023/10/22 04:33:07;;;;;;;6.60;1.60;;;13.00;99.90;;;;;;5096892;28;20403;-77
2023/10/22 04:35:53;;;;;;;6.67;1.90;;;12.90;99.90;;;;;;5093959;28;20530;-77
2023/10/22 04:38:39;;;;;;;5.00;1.37;;;12.90;99.90;;;;;;5092894;28;20402;-77
2023/10/22 04:41:25;;;;;;;4.60;2.00;;;12.90;99.90;;;;;;5097686;28;20403;-77
2023/10/22 04:44:12;;;;;;;7.80;1.53;;;12.90;99.90;;;;;;5099444;28;20612;-77
2023/10/22 04:46:58;;;;;;;10.57;1.70;;;12.80;99.90;;;;;;5098376;28;21043;-78
2023/10/22 04:49:44;;;;;;;13.27;1.80;;;12.80;99.90;;;;;;5092344;28;20421;-78
2023/10/22 04:52:32;;;;;;;4.00;1.50;;;12.80;99.90;;;;;;5098282;28;20408;-77
2023/10/22 04:55:18;;;;;;;4.73;1.70;;;12.80;99.90;;;;;;5099086;28;20690;-77
2023/10/22 04:58:04;;;;;;;5.23;1.83;;;12.80;99.90;;;;;;5096954;28;20438;-78
2023/10/22 05:00:51;;;;;;;9.80;2.00;;;12.80;99.90;;;;;;5093169;28;20425;-77
2023/10/22 05:03:37;;;;;;;4.77;1.53;;;12.80;99.90;;;;;;5091447;28;20464;-77
2023/10/22 05:06:23;;;;;;;12.50;1.83;;;12.70;99.90;;;;;;5105483;28;20465;-78
2023/10/22 05:09:10;;;;;;;5.63;2.40;;;12.70;99.90;;;;;;5098672;28;20432;-77
2023/10/22 05:11:55;;;;;;;3.07;1.10;;;12.60;99.90;;;;;;5098985;28;20433;-77
2023/10/22 05:14:41;;;;;;;8.27;1.70;;;12.70;99.90;;;;;;5091819;28;20437;-77
2023/10/22 05:17:29;;;;;;;14.70;1.30;;;12.60;99.90;;;;;;5095928;28;20454;-77
2023/10/22 05:20:15;;;;;;;3.73;1.67;;;12.60;99.90;;;;;;5099054;28;20416;-77
2023/10/22 05:23:03;;;;;;;4.43;1.97;;;12.70;99.90;;;;;;5097515;28;20403;-78
2023/10/22 05:25:48;;;;;;;7.40;2.30;;;12.70;99.90;;;;;;5092360;28;20468;-77
2023/10/22 05:28:34;;;;;;;3.80;1.60;;;12.60;99.90;;;;;;5097137;28;20948;-77
2023/10/22 05:31:22;;;;;;;6.00;1.70;;;12.70;99.90;;;;;;5097399;28;20951;-78
2023/10/22 05:34:09;;;;;;;13.30;2.03;;;12.70;99.90;;;;;;5094920;28;20432;-78
2023/10/22 05:36:54;;;;;;;17.87;2.47;;;12.80;99.90;;;;;;5097726;28;20390;-76
2023/10/22 05:39:41;;;;;;;10.30;2.10;;;12.70;99.90;;;;;;5091690;28;20818;-78
2023/10/22 05:42:26;;;;;;;6.77;1.80;;;12.80;99.90;;;;;;5098672;28;21020;-77
2023/10/22 05:45:12;;;;;;;8.23;2.20;;;12.80;99.90;;;;;;5098079;28;20451;-77
2023/10/22 05:47:58;;;;;;;9.53;2.13;;;12.80;99.90;;;;;;5094086;28;20479;-77
2023/10/22 05:50:45;;;;;;;11.23;1.97;;;12.90;99.90;;;;;;5088672;28;20399;-77
2023/10/22 05:53:30;;;;;;;4.43;1.70;;;12.90;99.90;;;;;;5098749;28;20420;-78
2023/10/22 05:56:16;;;;;;;8.73;1.93;;;12.80;99.90;;;;;;5099096;28;21060;-77
2023/10/22 05:59:04;;;;;;;6.73;1.70;;;12.80;99.90;;;;;;5098248;28;20527;-77
2023/10/22 06:01:50;;;;;;;8.53;2.17;;;12.70;99.90;;;;;;5093082;28;20483;-77
2023/10/22 06:04:36;;;;;;;10.40;2.13;;;12.70;99.90;;;;;;5100316;28;20480;-78
2023/10/22 06:07:23;;;;;;;5.77;1.53;;;12.70;99.90;;;;;;5094808;28;20917;-76
2023/10/22 06:10:10;;;;;;;6.33;1.90;;;12.60;99.90;;;;;;5101162;28;20448;-76
2023/10/22 06:12:55;;;;;;;6.03;1.90;;;12.60;99.90;;;;;;5093515;28;20500;-77
2023/10/22 06:15:44;;;;;;;7.83;2.33;;;12.60;99.90;;;;;;5090688;28;20411;-77
2023/10/22 06:18:29;;;;;;;6.30;1.80;;;12.50;99.90;;;;;;5102443;28;20541;-77
2023/10/22 06:21:15;;;;;;;10.63;2.00;;;12.60;99.90;;;;;;5098923;28;20424;-77
2023/10/22 06:24:02;;;;;;;10.27;1.90;;;12.60;99.90;;;;;;5094320;28;20472;-77
2023/10/22 06:26:48;;;;;;;7.23;1.93;;;12.60;99.90;;;;;;5095387;28;20486;-78
2023/10/22 06:29:33;;;;;;;7.97;2.67;;;12.60;99.90;;;;;;5097731;28;20418;-77
2023/10/22 06:32:19;;;;;;;9.60;2.40;;;12.60;99.90;;;;;;5100989;28;20437;-78
2023/10/22 06:35:07;;;;;;;9.97;1.90;;;12.60;99.90;;;;;;5099981;28;20806;-77
2023/10/22 06:37:53;;;;;;;10.80;2.80;;;12.50;99.90;;;;;;5098436;28;20392;-78
2023/10/22 06:40:40;;;;;;;10.73;2.03;;;12.50;99.90;;;;;;5101607;28;20448;-77
2023/10/22 06:43:25;;;;;;;14.20;2.10;;;12.50;99.90;;;;;;5104185;28;20783;-78
2023/10/22 06:46:11;;;;;;;8.63;2.93;;;12.60;99.90;;;;;;5104552;28;20822;-78
2023/10/22 06:48:57;;;;;;;8.23;2.13;;;12.60;99.90;;;;;;5098398;28;20801;-75
2023/10/22 06:51:43;;;;;;;14.70;2.93;;;12.60;99.90;;;;;;5096441;28;20422;-77
2023/10/22 06:54:28;;;;;;;9.07;3.30;;;12.60;99.90;;;;;;5107360;28;20439;-77
2023/10/22 06:57:15;;;;;;;8.03;2.00;;;12.60;99.90;;;;;;5097797;28;20518;-76
2023/10/22 07:00:01;;;;;;;9.73;2.13;;;12.60;99.90;;;;;;5097846;28;20406;-76
2023/10/22 07:02:47;;;;;;;9.47;2.17;;;12.70;99.90;;;;;;5095038;28;20654;-77
2023/10/22 07:05:32;;;;;;;10.23;1.40;;;12.60;99.90;;;;;;5098516;28;20520;-76
2023/10/22 07:08:18;;;;;;;9.77;2.03;;;12.60;99.90;;;;;;5101022;28;20938;-77
2023/10/22 07:11:04;;;;;;;6.27;2.07;;;12.70;99.90;;;;;;5103846;28;20549;-76
2023/10/22 07:13:51;;;;;;;11.47;2.30;;;12.70;99.90;;;;;;5098896;28;20962;-76
2023/10/22 07:16:36;;;;;;;6.77;2.50;;;12.70;99.90;;;;;;5099081;28;20393;-75
2023/10/22 07:19:22;;;;;;;5.93;1.90;;;12.70;99.90;;;;;;5099876;28;20402;-77
2023/10/22 07:22:08;;;;;;;7.50;1.50;;;12.60;99.90;;;;;;5098833;28;20403;-77
2023/10/22 07:24:54;;;;;;;6.60;1.97;;;12.70;99.90;;;;;;5092264;28;20465;-77
2023/10/22 07:27:39;;;;;;;5.80;1.53;;;12.70;99.90;;;;;;5099999;28;20457;-77
2023/10/22 07:30:27;;;;;;;17.27;2.33;;;12.70;99.90;;;;;;5098980;28;20400;-77
2023/10/22 07:33:12;;;;;;;12.17;2.00;;;12.70;99.90;;;;;;5104958;28;20907;-77
2023/10/22 07:36:00;;;;;;;7.27;1.87;;;12.70;99.90;;;;;;5096624;28;20987;-76
2023/10/22 07:38:46;;;;;;;6.93;2.00;;;12.70;99.90;;;;;;5096068;28;20954;-77
2023/10/22 07:41:31;;;;;;;8.43;1.67;;;12.80;99.90;;;;;;5104186;28;20480;-77
2023/10/22 07:44:17;;;;;;;7.33;2.20;;;12.80;99.90;;;;;;5102546;28;21040;-76
2023/10/22 07:47:05;;;;;;;6.63;2.10;;;12.80;99.90;;;;;;5097216;28;20468;-77
2023/10/22 07:49:52;;;;;;;7.93;1.93;;;12.90;99.90;;;;;;5089726;28;20433;-77
2023/10/22 07:52:38;;;;;;;11.40;2.30;;;13.00;99.90;;;;;;5099533;28;20424;-77
2023/10/22 07:55:23;;;;;;;8.70;1.83;;;13.00;99.90;;;;;;5107586;28;20799;-76
2023/10/22 07:58:09;;;;;;;7.60;1.20;;;13.20;99.90;;;;;;5100212;28;20772;-77
2023/10/22 08:00:55;;;;;;;17.30;1.97;;;13.30;99.90;;;;;;5094571;28;20396;-77
2023/10/22 08:03:42;;;;;;;10.47;2.40;;;13.40;99.90;;;;;;5102629;28;20425;-76
2023/10/22 08:06:27;;;;;;;7.63;1.80;;;13.40;99.90;;;;;;5097219;28;20431;-77
2023/10/22 08:09:13;;;;;;;11.83;2.67;;;13.50;99.90;;;;;;5100947;28;20404;-77
2023/10/22 08:11:59;;;;;;;4.87;1.53;;;13.60;99.90;;;;;;5102473;28;20468;-77
2023/10/22 08:14:44;;;;;;;9.53;2.00;;;13.60;99.90;;;;;;5098839;28;20902;-77
2023/10/22 08:17:30;;;;;;;12.37;2.57;;;13.80;99.90;;;;;;5101227;28;20825;-77
2023/10/22 08:20:17;;;;;;;9.53;2.10;;;13.90;99.90;;;;;;5102105;28;20412;-77
2023/10/22 08:23:03;;;;;;;3.97;1.70;;;13.90;99.90;;;;;;5090740;28;20393;-76
2023/10/22 08:25:52;;;;;;;12.73;2.40;;;13.90;99.90;;;;;;5094947;28;20473;-77
2023/10/22 08:28:38;;;;;;;10.97;2.10;;;14.00;99.90;;;;;;5098977;28;20429;-77
2023/10/22 08:31:24;;;;;;;16.73;2.30;;;14.00;99.90;;;;;;5103130;28;20399;-77
2023/10/22 08:34:09;;;;;;;12.13;3.47;;;14.00;99.90;;;;;;5106324;28;20430;-77
2023/10/22 08:36:56;;;;;;;6.23;1.40;;;14.00;99.90;;;;;;5092871;28;20392;-77
2023/10/22 08:39:42;;;;;;;8.97;2.13;;;14.10;99.90;;;;;;5094538;28;20913;-77
2023/10/22 08:42:28;;;;;;;10.63;1.80;;;14.30;99.90;;;;;;5101820;28;20424;-77
2023/10/22 08:45:14;;;;;;;11.60;2.20;;;14.30;99.90;;;;;;5100792;28;20447;-76
2023/10/22 08:48:04;;;;;;;13.17;4.10;;;14.40;99.90;;;;;;5096395;28;20418;-76
2023/10/22 08:50:50;;;;;;;7.70;1.67;;;14.40;99.90;;;;;;5094724;28;20760;-77
2023/10/22 08:53:37;;;;;;;7.60;2.97;;;14.50;99.90;;;;;;5100943;28;20395;-77
2023/10/22 08:56:23;;;;;;;8.53;1.80;;;14.40;99.90;;;;;;5092058;28;20842;-74
2023/10/22 08:59:09;;;;;;;5.33;1.97;;;14.50;99.90;;;;;;5100066;28;20430;-76
2023/10/22 09:01:55;;;;;;;9.53;2.10;;;14.50;99.90;;;;;;5099949;28;20388;-76
2023/10/22 09:04:40;;;;;;;9.33;2.17;;;14.50;99.90;;;;;;5100159;28;20468;-77
2023/10/22 09:07:52;;;;;;;7.73;1.47;;;14.60;99.90;;;;;;5096152;28;20895;-77
2023/10/22 09:10:39;;;;;;;8.67;1.83;;;14.50;99.90;;;;;;5102525;28;20492;-77
2023/10/22 09:13:25;;;;;;;11.37;2.23;;;14.50;99.90;;;;;;5102972;28;20439;-76
2023/10/22 09:16:11;;;;;;;7.90;2.37;;;14.50;99.90;;;;;;5098940;28;20459;-77
2023/10/22 09:18:57;;;;;;;11.13;2.50;;;14.50;99.90;;;;;;5095875;28;20944;-77
2023/10/22 09:21:44;;;;;;;13.43;3.87;;;14.50;99.90;;;;;;5094791;28;20429;-77
2023/10/22 09:24:29;;;;;;;8.03;2.07;;;14.50;99.90;;;;;;5098980;28;20430;-77
2023/10/22 09:27:24;;;;;;;7.40;2.90;;;14.60;99.90;;;;;;5101680;28;20462;-77
2023/10/22 09:30:11;;;;;;;9.00;2.30;;;14.60;99.90;;;;;;5096836;28;20430;-76
2023/10/22 09:32:57;;;;;;;8.90;1.90;;;14.50;99.90;;;;;;5095748;28;20499;-76
2023/10/22 09:35:57;;;;;;;9.33;2.03;;;14.60;99.90;;;;;;5099906;28;20444;-77
2023/10/22 09:38:47;;;;;;;6.83;1.70;;;14.50;99.90;;;;;;5100706;28;20466;-77
2023/10/22 09:41:33;;;;;;;6.23;1.90;;;14.60;99.90;;;;;;5104536;28;20415;-77
2023/10/22 09:44:20;;;;;;;11.60;2.10;;;14.70;99.90;;;;;;5098668;28;20813;-76
2023/10/22 09:47:06;;;;;;;8.37;1.93;;;14.90;99.90;;;;;;5088354;28;20788;-74
2023/10/22 09:49:56;;;;;;;10.33;1.93;;;15.10;99.90;;;;;;5097863;28;20408;-75
2023/10/22 09:52:44;;;;;;;10.00;1.83;;;15.30;99.90;;;;;;5098303;28;20416;-75
2023/10/22 09:55:31;;;;;;;12.90;1.70;;;15.40;99.90;;;;;;5108490;22;20461;-71
2023/10/22 09:58:17;;;;;;;7.20;2.47;;;15.50;99.90;;;;;;5081624;28;20400;-69
2023/10/22 10:01:04;;;;;;;10.23;2.37;;;15.60;99.90;;;;;;5081205;28;20426;-70
2023/10/22 10:03:50;;;;;;;7.50;1.80;;;15.80;99.90;;;;;;5078774;28;20440;-71
2023/10/22 10:06:37;;;;;;;8.70;1.90;;;15.90;99.90;;;;;;5079900;28;20440;-70
2023/10/22 10:09:24;;;;;;;7.57;1.90;;;16.10;99.90;;;;;;5074321;28;20388;-70
2023/10/22 10:12:12;;;;;;;8.80;2.50;;;16.00;99.90;;;;;;5083216;28;20475;-70
2023/10/22 10:14:57;;;;;;;13.93;3.10;;;16.10;99.90;;;;;;5075272;28;20472;-71
2023/10/22 10:17:53;;;;;;;11.03;2.30;;;16.00;99.90;;;;;;5079835;28;20408;-70
2023/10/22 10:20:41;;;;;;;16.63;2.73;;;15.80;99.90;;;;;;5066076;28;20582;-70
2023/10/22 10:23:26;;;;;;;16.20;2.20;;;15.70;99.90;;;;;;5079317;28;20934;-70
2023/10/22 10:26:30;;;;;;;13.23;2.80;;;15.50;99.90;;;;;;5079205;28;21011;-70
2023/10/22 10:29:17;;;;;;;6.50;2.07;;;15.40;99.90;;;;;;5084638;28;20992;-70
2023/10/22 10:32:21;;;;;;;22.13;2.57;;;15.50;99.90;;;;;;5076551;28;20426;-70
2023/10/22 10:35:10;;;;;;;10.57;2.00;;;15.50;99.90;;;;;;5082133;28;20457;-70
2023/10/22 10:38:18;;;;;;;7.33;2.17;;;15.40;99.90;;;;;;5074273;28;20501;-71
2023/10/22 10:41:04;;;;;;;10.10;2.40;;;15.30;99.90;;;;;;5079969;28;20401;-71
2023/10/22 10:44:09;;;;;;;14.53;2.67;;;15.30;99.90;;;;;;5080129;28;20477;-71
2023/10/22 10:46:55;;;;;;;7.20;1.70;;;15.30;99.90;;;;;;5078595;28;20638;-72
2023/10/22 10:49:59;;;;;;;16.57;2.77;;;15.20;99.90;;;;;;5084602;28;20426;-71
2023/10/22 10:53:02;;;;;;;13.30;2.73;;;15.20;99.90;;;;;;5077569;28;20433;-72
2023/10/22 10:55:50;;;;;;;10.03;2.00;;;15.20;99.90;;;;;;5070105;28;20479;-73
2023/10/22 10:58:43;;;;;;;8.23;2.13;;;15.30;99.90;;;;;;5083310;28;20415;-72
2023/10/22 11:01:29;;;;;;;14.20;2.70;;;15.60;99.90;;;;;;5079065;28;20434;-71
2023/10/22 11:04:14;;;;;;;9.07;2.13;;;15.80;99.20;;;;;;5080532;28;20427;-71
2023/10/22 11:07:00;;;;;;;15.10;2.33;;;16.00;96.20;;;;;;5080641;28;20521;-71
2023/10/22 11:09:47;;;;;;;14.50;2.33;;;16.20;93.10;;;;;;5081645;28;20404;-71
2023/10/22 11:12:33;;;;;;;8.93;2.43;;;16.40;94.50;;;;;;5069326;28;20504;-70
2023/10/22 11:15:19;;;;;;;16.30;2.40;;;16.60;94.60;;;;;;5076283;28;20543;-70
2023/10/22 11:18:06;;;;;;;16.10;2.93;;;16.60;90.00;;;;;;5077446;28;20490;-71
2023/10/22 11:20:57;;;;;;;10.33;2.23;;;16.60;90.30;;;;;;5067360;28;20441;-71
2023/10/22 11:23:43;;;;;;;7.23;1.73;;;16.60;88.80;;;;;;5081887;28;20434;-71
2023/10/22 11:26:30;;;;;;;15.03;3.00;;;16.60;89.20;;;;;;5082492;28;20825;-71
2023/10/22 11:29:16;;;;;;;9.97;2.50;;;16.60;90.00;;;;;;5083832;28;20622;-71
2023/10/22 11:32:01;;;;;;;7.80;2.20;;;16.50;85.80;;;;;;5084427;28;20572;-71
2023/10/22 11:34:48;;;;;;;13.40;2.80;;;16.40;85.50;;;;;;5087573;28;20480;-71
2023/10/22 11:37:37;;;;;;;8.20;1.60;;;16.30;85.50;;;;;;5082952;28;20535;-72
2023/10/22 11:40:28;;;;;;;7.90;2.30;;;16.20;87.10;;;;;;5084838;28;20927;-71
2023/10/22 11:43:18;;;;;;;6.80;1.80;;;16.20;89.80;;;;;;5089848;28;20427;-71
2023/10/22 11:46:04;;;;;;;7.70;1.83;;;16.20;88.10;;;;;;5078376;28;20453;-71
2023/10/22 11:48:49;;;;;;;9.50;1.50;;;16.20;89.80;;;;;;5081993;28;20797;-71
2023/10/22 11:51:43;;;;;;;12.03;2.73;;;16.20;88.90;;;;;;5083728;28;20744;-71
2023/10/22 11:54:45;;;;;;;10.10;2.00;;;16.30;88.10;;;;;;5078854;28;20466;-71
2023/10/22 11:57:31;;;;;;;14.97;2.20;;;16.20;89.10;;;;;;5076089;28;20388;-72
2023/10/22 12:00:18;;;;;;;12.03;2.07;;;16.10;88.50;;;;;;5085427;28;20426;-71
2023/10/22 12:03:04;;;;;;;13.83;1.90;;;16.10;87.70;;;;;;5084934;28;20439;-71
2023/10/22 12:05:50;;;;;;;8.20;2.90;;;16.10;87.30;;;;;;5086077;28;20547;-71
2023/10/22 12:08:35;;;;;;;8.40;2.00;;;16.10;85.10;;;;;;5086517;28;20438;-71
2023/10/22 12:11:21;;;;;;;10.67;1.83;;;15.90;84.80;;;;;;5087491;28;20404;-72
2023/10/22 12:14:06;;;;;;;11.13;2.50;;;16.00;87.50;;;;;;5082925;28;20787;-71
2023/10/22 12:16:53;;;;;;;13.70;2.20;;;16.10;86.80;;;;;;5083440;28;20784;-71
2023/10/22 12:19:39;;;;;;;11.00;2.33;;;16.30;83.40;;;;;;5083007;28;20392;-70
2023/10/22 12:22:25;;;;;;;6.13;2.30;;;16.30;80.90;;;;;;5081129;28;20433;-71
2023/10/22 12:25:11;;;;;;;8.10;1.83;;;16.30;82.10;;;;;;5083357;28;21007;-71
2023/10/22 12:27:57;;;;;;;6.60;2.07;;;16.40;81.00;;;;;;5081217;28;20477;-71
2023/10/22 12:30:42;;;;;;;7.10;2.37;;;16.40;81.00;;;;;;5082946;28;20400;-71
2023/10/22 12:33:29;;;;;;;8.10;2.20;;;16.50;83.00;;;;;;5085150;28;20485;-71
2023/10/22 12:36:14;;;;;;;12.00;2.53;;;16.50;81.70;;;;;;5083955;28;20545;-71
2023/10/22 12:39:00;;;;;;;4.53;1.60;;;16.50;80.10;;;;;;5076290;28;20427;-71
2023/10/22 12:41:46;;;;;;;11.30;2.17;;;16.70;81.20;;;;;;5089362;28;20400;-71
2023/10/22 12:44:32;;;;;;;12.87;2.37;;;16.70;81.50;;;;;;5086383;28;20450;-71
2023/10/22 12:47:17;;;;;;;17.00;3.80;;;16.70;78.80;;;;;;5084557;28;20498;-71
2023/10/22 12:50:05;;;;;;;12.07;2.40;;;16.60;76.80;;;;;;5089292;28;20558;-71
2023/10/22 12:52:50;;;;;;;5.47;1.57;;;16.50;80.00;;;;;;5087224;28;20438;-71
2023/10/22 12:55:36;;;;;;;9.43;2.23;;;16.50;81.00;;;;;;5075749;28;20436;-72
2023/10/22 12:58:22;;;;;;;12.13;2.03;;;16.40;82.60;;;;;;5086538;28;20404;-71
2023/10/22 13:01:07;;;;;;;12.60;2.10;;;16.30;83.10;;;;;;5085042;28;21045;-71
2023/10/22 13:03:53;;;;;;;8.83;1.80;;;16.40;81.30;;;;;;5084038;28;20786;-71
2023/10/22 13:06:40;;;;;;;9.40;2.13;;;16.70;81.80;;;;;;5085065;28;20472;-71
2023/10/22 13:09:26;;;;;;;4.77;1.63;;;17.10;80.50;;;;;;5084373;28;20524;-71
2023/10/22 13:12:11;;;;;;;11.50;2.50;;;17.60;72.70;;;;;;5072098;28;20541;-71
2023/10/22 13:14:57;;;;;;;12.63;2.47;;;18.00;66.90;;;;;;5085806;28;20409;-71
2023/10/22 13:17:43;;;;;;;15.27;2.20;;;18.40;59.70;;;;;;5085249;28;20439;-71
2023/10/22 13:20:28;;;;;;;8.87;1.90;;;18.60;53.60;;;;;;5081653;28;20400;-71
2023/10/22 13:23:16;;;;;;;12.90;2.30;;;18.50;37.00;;;;;;5086332;28;20504;-71
2023/10/22 13:26:02;;;;;;;7.23;1.97;;;18.70;38.70;;;;;;5082593;28;20877;-72
2023/10/22 13:28:47;;;;;;;6.80;2.27;;;18.90;38.40;;;;;;5074379;28;20511;-71
2023/10/22 13:31:33;;;;;;;16.10;2.53;;;18.90;38.40;;;;;;5081919;28;20461;-71
2023/10/22 13:34:19;;;;;;;7.43;1.93;;;18.80;33.50;;;;;;5087890;28;20426;-71
2023/10/22 13:37:05;;;;;;;16.90;2.50;;;18.60;33.90;;;;;;5080792;28;20428;-72
2023/10/22 13:39:52;;;;;;;5.53;1.50;;;18.70;32.10;;;;;;5083733;28;20482;-71
2023/10/22 13:42:37;;;;;;;9.63;1.90;;;18.70;33.10;;;;;;5082620;28;20789;-71
2023/10/22 13:45:23;;;;;;;8.50;1.97;;;18.80;32.90;;;;;;5081647;28;20453;-72
2023/10/22 13:48:09;;;;;;;5.33;1.97;;;19.10;31.70;;;;;;5085021;28;20892;-71
2023/10/22 13:50:56;;;;;;;7.37;1.70;;;19.50;29.90;;;;;;5086465;28;20960;-72
2023/10/22 13:53:42;;;;;;;7.00;1.73;;;19.90;28.40;;;;;;5085100;28;20532;-72
2023/10/22 13:56:29;;;;;;;14.80;2.20;;;20.00;26.40;;;;;;5080408;28;20435;-72
2023/10/22 13:59:14;;;;;;;9.87;2.20;;;20.00;26.40;;;;;;5091405;28;20417;-72
2023/10/22 14:02:00;;;;;;;6.77;1.53;;;20.00;26.60;;;;;;5082929;28;20422;-71
2023/10/22 14:04:46;;;;;;;5.07;1.53;;;19.70;25.60;;;;;;5082343;28;20420;-71
2023/10/22 14:07:32;;;;;;;8.80;1.67;;;19.40;25.90;;;;;;5081444;28;20446;-72
2023/10/22 14:10:17;;;;;;;8.00;1.50;;;18.90;25.50;;;;;;5080077;28;20419;-71
2023/10/22 14:13:05;;;;;;;7.93;1.90;;;18.40;26.90;;;;;;5086092;28;20410;-71
2023/10/22 14:15:51;;;;;;;9.70;1.97;;;18.10;29.50;;;;;;5084391;28;20495;-71
2023/10/22 14:18:37;;;;;;;12.23;1.73;;;17.90;31.40;;;;;;5084574;28;20472;-71
2023/10/22 14:21:23;;;;;;;6.20;2.10;;;17.70;33.30;;;;;;5074895;28;20425;-71
2023/10/22 14:24:09;;;;;;;8.47;1.40;;;17.50;36.30;;;;;;5081955;28;20465;-71